Time;durP1;ratioP1;P1;durP2;ratioP2;P2;SDS_P1;SDS_P2;PMS_P1;PMS_P2;Temp;Humidity;BMP_temperature;BMP_pressure;BME280_temperature;BME280_humidity;BME280_pressure;Samples;Min_cycle;Max_cycle;Signal;HPM_P1;HPM_P2
2022/03/28 00:01:15;;;;;;;;;;;;;;;;;;6183174;23;19923;-86
2022/03/28 00:03:42;;;;;;;;;;;;;;;;;;6184143;23;19957;-86
2022/03/28 00:06:09;;;;;;;;;;;;;;;;;;6183208;23;19920;-85
2022/03/28 00:08:36;;;;;;;;;;;;;;;;;;6183707;23;19938;-85
2022/03/28 00:11:02;;;;;;;;;;;;;;;;;;6182881;23;20377;-85
2022/03/28 00:13:30;;;;;;;;;;;;;;;;;;6182382;23;20344;-86
2022/03/28 00:15:57;;;;;;;;;;;;;;;;;;6180460;23;19919;-86
2022/03/28 00:18:24;;;;;;;;;;;;;;;;;;6181238;23;20023;-85
2022/03/28 00:20:53;;;;;;;;;;;;;;;;;;6180161;23;19991;-86
2022/03/28 00:23:20;;;;;;;;;;;;;;;;;;6179560;23;20677;-86
2022/03/28 00:25:47;;;;;;;;;;;;;;;;;;6178579;23;20322;-86
2022/03/28 00:28:15;;;;;;;;;;;;;;;;;;6179663;23;20356;-85
2022/03/28 00:30:42;;;;;;;;;;;;;;;;;;6179171;23;19943;-86
2022/03/28 00:33:09;;;;;;;;;;;;;;;;;;6179130;23;19973;-85
2022/03/28 00:35:36;;;;;;;;;;;;;;;;;;6180315;23;20301;-86
2022/03/28 00:38:03;;;;;;;;;;;;;;;;;;6178617;23;19920;-86
2022/03/28 00:40:32;;;;;;;;;;;;;;;;;;6179118;23;19916;-85
2022/03/28 00:42:59;;;;;;;;;;;;;;;;;;6178885;23;19926;-86
2022/03/28 00:45:27;;;;;;;;;;;;;;;;;;6177934;23;20304;-86
2022/03/28 00:47:55;;;;;;;;;;;;;;;;;;6178850;23;20015;-86
2022/03/28 00:50:23;;;;;;;;;;;;;;;;;;6179390;23;20290;-86
2022/03/28 00:52:50;;;;;;;;;;;;;;;;;;6180636;23;20011;-86
2022/03/28 00:55:18;;;;;;;;;;;;;;;;;;6179599;23;19927;-86
2022/03/28 00:57:45;;;;;;;;;;;;;;;;;;6180295;23;19935;-85
2022/03/28 01:00:11;;;;;;;;;;;;;;;;;;6178584;23;20290;-86
2022/03/28 01:02:39;;;;;;;;;;;;;;;;;;6178405;23;20022;-86
2022/03/28 01:05:06;;;;;;;;;;;;;;;;;;6203257;23;20017;-86
2022/03/28 01:07:33;;;;;;;;;;;;;;;;;;6178451;23;19923;-85
2022/03/28 01:10:00;;;;;;;;;;;;;;;;;;6173378;23;19998;-86
2022/03/28 01:12:27;;;;;;;;;;;;;;;;;;6174517;23;20404;-85
2022/03/28 01:14:54;;;;;;;;;;;;;;;;;;6173216;23;20002;-85
2022/03/28 01:20:09;;;;;;;;;;;;;;;;;;6173204;23;19916;-85
2022/03/28 01:22:37;;;;;;;;;;;;;;;;;;6173738;23;19974;-85
2022/03/28 01:25:04;;;;;;;;;;;;;;;;;;6172442;23;19920;-85
2022/03/28 01:27:31;;;;;;;;;;;;;;;;;;6174002;23;19948;-85
2022/03/28 01:29:58;;;;;;;;;;;;;;;;;;6173489;23;19993;-85
2022/03/28 01:32:25;;;;;;;;;;;;;;;;;;6174664;23;19920;-86
2022/03/28 01:34:52;;;;;;;;;;;;;;;;;;6176817;23;20356;-85
2022/03/28 01:37:20;;;;;;;;;;;;;;;;;;6176085;23;19962;-85
2022/03/28 01:39:47;;;;;;;;;;;;;;;;;;6175161;23;19917;-86
2022/03/28 01:42:14;;;;;;;;;;;;;;;;;;6175257;23;20423;-86
2022/03/28 01:44:41;;;;;;;;;;;;;;;;;;6176384;23;19920;-86
2022/03/28 01:47:08;;;;;;;;;;;;;;;;;;6176050;23;19926;-86
2022/03/28 01:49:35;;;;;;;;;;;;;;;;;;6176312;23;19916;-85
2022/03/28 01:52:02;;;;;;;;;;;;;;;;;;6175635;23;19927;-86
2022/03/28 01:54:30;;;;;;;;;;;;;;;;;;6176471;23;19920;-86
2022/03/28 01:56:57;;;;;;;;;;;;;;;;;;6176136;23;20017;-86
2022/03/28 01:59:24;;;;;;;;;;;;;;;;;;6178890;23;19947;-86
2022/03/28 02:01:51;;;;;;;;;;;;;;;;;;6178509;23;19955;-86
2022/03/28 02:04:18;;;;;;;;;;;;;;;;;;6176186;23;19954;-86
2022/03/28 02:06:46;;;;;;;;;;;;;;;;;;6176184;23;19917;-86
2022/03/28 02:09:27;;;;;;;;;;;;;;;;;;6136061;23;19988;-87
2022/03/28 02:11:54;;;;;;;;;;;;;;;;;;6090433;23;19924;-87
2022/03/28 02:14:21;;;;;;;;;;;;;;;;;;6089478;23;19920;-87
2022/03/28 02:16:49;;;;;;;;;;;;;;;;;;6090221;23;20696;-87
2022/03/28 02:19:16;;;;;;;;;;;;;;;;;;6090309;23;19982;-86
2022/03/28 02:21:43;;;;;;;;;;;;;;;;;;6090662;23;19917;-87
2022/03/28 02:24:10;;;;;;;;;;;;;;;;;;6091456;23;20584;-87
2022/03/28 02:26:37;;;;;;;;;;;;;;;;;;6090517;23;19928;-87
2022/03/28 02:29:05;;;;;;;;;;;;;;;;;;6089465;23;19924;-87
2022/03/28 02:31:32;;;;;;;;;;;;;;;;;;6090414;23;20420;-86
2022/03/28 02:33:59;;;;;;;;;;;;;;;;;;6090214;23;19920;-86
2022/03/28 02:36:26;;;;;;;;;;;;;;;;;;6091031;23;19921;-87
2022/03/28 02:38:53;;;;;;;;;;;;;;;;;;6115128;23;19929;-86
2022/03/28 02:41:20;;;;;;;;;;;;;;;;;;6163327;23;19923;-86
2022/03/28 02:43:49;;;;;;;;;;;;;;;;;;6176180;23;19920;-86
2022/03/28 02:46:17;;;;;;;;;;;;;;;;;;6174698;23;19927;-87
2022/03/28 02:48:44;;;;;;;;;;;;;;;;;;6175791;23;19931;-86
2022/03/28 02:51:11;;;;;;;;;;;;;;;;;;6175147;23;19956;-88
2022/03/28 02:53:38;;;;;;;;;;;;;;;;;;6176336;23;19920;-87
2022/03/28 02:56:06;;;;;;;;;;;;;;;;;;6174860;23;19927;-87
2022/03/28 02:58:33;;;;;;;;;;;;;;;;;;6176065;23;19920;-87
2022/03/28 03:01:00;;;;;;;;;;;;;;;;;;6175758;23;19948;-87
2022/03/28 03:03:27;;;;;;;;;;;;;;;;;;6176419;23;19927;-86
2022/03/28 03:05:54;;;;;;;;;;;;;;;;;;6174620;23;19931;-87
2022/03/28 03:08:21;;;;;;;;;;;;;;;;;;6175418;23;19920;-86
2022/03/28 03:10:48;;;;;;;;;;;;;;;;;;6175307;23;19939;-86
2022/03/28 03:13:16;;;;;;;;;;;;;;;;;;6175752;23;19920;-86
2022/03/28 03:15:43;;;;;;;;;;;;;;;;;;6175270;23;19959;-86
2022/03/28 03:18:10;;;;;;;;;;;;;;;;;;6175111;23;20561;-86
2022/03/28 03:20:37;;;;;;;;;;;;;;;;;;6174768;23;19916;-86
2022/03/28 03:23:04;;;;;;;;;;;;;;;;;;6175207;23;19999;-87
2022/03/28 03:25:32;;;;;;;;;;;;;;;;;;6175808;23;19916;-86
2022/03/28 03:27:59;;;;;;;;;;;;;;;;;;6176069;23;19947;-86
2022/03/28 03:30:26;;;;;;;;;;;;;;;;;;6174825;23;20345;-86
2022/03/28 03:32:53;;;;;;;;;;;;;;;;;;6177936;23;19931;-87
2022/03/28 03:35:21;;;;;;;;;;;;;;;;;;6178038;23;19955;-87
2022/03/28 03:37:48;;;;;;;;;;;;;;;;;;6178156;23;19916;-86
2022/03/28 03:40:15;;;;;;;;;;;;;;;;;;6177547;23;19920;-86
2022/03/28 03:42:42;;;;;;;;;;;;;;;;;;6177824;23;19924;-86
2022/03/28 03:45:10;;;;;;;;;;;;;;;;;;6177452;23;19923;-87
2022/03/28 03:47:37;;;;;;;;;;;;;;;;;;6176002;23;19943;-86
2022/03/28 03:50:04;;;;;;;;;;;;;;;;;;6176910;23;19998;-87
2022/03/28 03:52:31;;;;;;;;;;;;;;;;;;6177571;23;20020;-86
2022/03/28 03:54:59;;;;;;;;;;;;;;;;;;6176956;23;19920;-87
2022/03/28 03:57:26;;;;;;;;;;;;;;;;;;6175943;23;20077;-87
2022/03/28 03:59:53;;;;;;;;;;;;;;;;;;6176656;23;19974;-87
2022/03/28 04:02:21;;;;;;;;;;;;;;;;;;6176036;23;19924;-87
2022/03/28 04:04:48;;;;;;;;;;;;;;;;;;6176035;23;19943;-87
2022/03/28 04:07:16;;;;;;;;;;;;;;;;;;6176418;23;19920;-87
2022/03/28 04:09:43;;;;;;;;;;;;;;;;;;6176440;23;19929;-88
2022/03/28 04:12:12;;;;;;;;;;;;;;;;;;6174692;23;19939;-87
2022/03/28 04:14:40;;;;;;;;;;;;;;;;;;6174014;23;19920;-88
2022/03/28 04:17:07;;;;;;;;;;;;;;;;;;6174214;23;19917;-88
2022/03/28 04:19:34;;;;;;;;;;;;;;;;;;6175913;23;19924;-87
2022/03/28 04:22:02;;;;;;;;;;;;;;;;;;6174786;23;19920;-87
2022/03/28 04:24:29;;;;;;;;;;;;;;;;;;6175284;23;19920;-87
2022/03/28 04:26:56;;;;;;;;;;;;;;;;;;6174703;23;20547;-87
2022/03/28 04:29:24;;;;;;;;;;;;;;;;;;6172791;23;19922;-87
2022/03/28 04:31:51;;;;;;;;;;;;;;;;;;6173600;23;20235;-86
2022/03/28 04:34:18;;;;;;;;;;;;;;;;;;6173338;23;19924;-86
2022/03/28 04:36:45;;;;;;;;;;;;;;;;;;6172755;23;19920;-86
2022/03/28 04:39:13;;;;;;;;;;;;;;;;;;6173905;23;19975;-87
2022/03/28 04:41:40;;;;;;;;;;;;;;;;;;6175938;23;20341;-86
2022/03/28 04:44:07;;;;;;;;;;;;;;;;;;6174566;23;19924;-86
2022/03/28 04:46:34;;;;;;;;;;;;;;;;;;6173840;23;19969;-86
2022/03/28 04:49:01;;;;;;;;;;;;;;;;;;6174106;23;19923;-86
2022/03/28 04:51:29;;;;;;;;;;;;;;;;;;6175078;23;19940;-86
2022/03/28 04:53:56;;;;;;;;;;;;;;;;;;6175243;23;19924;-86
2022/03/28 04:56:23;;;;;;;;;;;;;;;;;;6173019;23;19920;-86
2022/03/28 04:58:50;;;;;;;;;;;;;;;;;;6173942;23;19927;-86
2022/03/28 05:01:17;;;;;;;;;;;;;;;;;;6173601;23;19995;-87
2022/03/28 05:03:45;;;;;;;;;;;;;;;;;;6174635;23;20280;-87
2022/03/28 05:06:12;;;;;;;;;;;;;;;;;;6175150;23;19951;-87
2022/03/28 05:08:39;;;;;;;;;;;;;;;;;;6176195;23;19923;-87
2022/03/28 05:11:06;;;;;;;;;;;;;;;;;;6173269;23;19924;-87
2022/03/28 05:13:33;;;;;;;;;;;;;;;;;;6174766;23;19920;-86
2022/03/28 05:16:02;;;;;;;;;;;;;;;;;;6174019;23;19991;-87
2022/03/28 05:18:29;;;;;;;;;;;;;;;;;;6172321;23;20014;-86
2022/03/28 05:20:57;;;;;;;;;;;;;;;;;;6173914;23;19920;-87
2022/03/28 05:23:24;;;;;;;;;;;;;;;;;;6173965;23;19930;-86
2022/03/28 05:25:51;;;;;;;;;;;;;;;;;;6175742;23;19920;-86
2022/03/28 05:28:19;;;;;;;;;;;;;;;;;;6176944;23;19979;-86
2022/03/28 05:30:46;;;;;;;;;;;;;;;;;;6177270;23;19920;-86
2022/03/28 05:33:13;;;;;;;;;;;;;;;;;;6176552;23;20246;-87
2022/03/28 05:35:41;;;;;;;;;;;;;;;;;;6176923;23;19920;-86
2022/03/28 05:38:08;;;;;;;;;;;;;;;;;;6176457;23;19931;-86
2022/03/28 05:40:35;;;;;;;;;;;;;;;;;;6177210;23;19920;-86
2022/03/28 05:43:02;;;;;;;;;;;;;;;;;;6176545;23;20383;-86
2022/03/28 05:45:29;;;;;;;;;;;;;;;;;;6177075;23;19920;-86
2022/03/28 05:47:56;;;;;;;;;;;;;;;;;;6178006;23;20380;-86
2022/03/28 05:50:23;;;;;;;;;;;;;;;;;;6176042;23;19924;-86
2022/03/28 05:52:51;;;;;;;;;;;;;;;;;;6177117;23;19934;-86
2022/03/28 05:55:18;;;;;;;;;;;;;;;;;;6177305;23;20655;-86
2022/03/28 05:57:45;;;;;;;;;;;;;;;;;;6177401;23;20051;-87
2022/03/28 06:00:14;;;;;;;;;;;;;;;;;;6176032;23;19967;-86
2022/03/28 06:02:41;;;;;;;;;;;;;;;;;;6172914;23;20014;-86
2022/03/28 06:05:08;;;;;;;;;;;;;;;;;;6173126;23;20472;-86
2022/03/28 06:07:35;;;;;;;;;;;;;;;;;;6173733;23;19999;-86
2022/03/28 06:10:02;;;;;;;;;;;;;;;;;;6173835;23;19920;-86
2022/03/28 06:12:28;;;;;;;;;;;;;;;;;;6174321;23;19924;-87
2022/03/28 06:14:55;;;;;;;;;;;;;;;;;;6173754;23;19970;-86
2022/03/28 06:17:23;;;;;;;;;;;;;;;;;;6175818;23;20661;-86
2022/03/28 06:19:50;;;;;;;;;;;;;;;;;;6176568;23;19923;-86
2022/03/28 06:22:17;;;;;;;;;;;;;;;;;;6176634;23;20334;-87
2022/03/28 06:24:44;;;;;;;;;;;;;;;;;;6175224;23;20015;-87
2022/03/28 06:27:12;;;;;;;;;;;;;;;;;;6176786;23;19971;-87
2022/03/28 06:29:39;;;;;;;;;;;;;;;;;;6177170;23;19965;-86
2022/03/28 06:32:06;;;;;;;;;;;;;;;;;;6176149;23;19922;-87
2022/03/28 06:34:33;;;;;;;;;;;;;;;;;;6177574;23;20329;-87
2022/03/28 06:37:01;;;;;;;;;;;;;;;;;;6174612;23;20346;-87
2022/03/28 06:39:28;;;;;;;;;;;;;;;;;;6176091;23;19947;-87
2022/03/28 06:41:55;;;;;;;;;;;;;;;;;;6176890;23;20269;-86
2022/03/28 06:44:22;;;;;;;;;;;;;;;;;;6178809;23;20330;-85
2022/03/28 06:46:50;;;;;;;;;;;;;;;;;;6180944;23;20008;-84
2022/03/28 06:49:16;;;;;;;;;;;;;;;;;;6177623;23;19927;-84
2022/03/28 06:51:43;;;;;;;;;;;;;;;;;;6176257;23;19920;-84
2022/03/28 06:54:14;;;;;;;;;;;;;;;;;;6176181;23;20342;-85
2022/03/28 06:56:42;;;;;;;;;;;;;;;;;;6179266;23;19966;-85
2022/03/28 06:59:09;;;;;;;;;;;;;;;;;;6180224;23;20299;-85
2022/03/28 07:01:37;;;;;;;;;;;;;;;;;;6177042;23;20302;-85
2022/03/28 07:04:04;;;;;;;;;;;;;;;;;;6180891;23;19957;-86
2022/03/28 07:06:32;;;;;;;;;;;;;;;;;;6179317;23;19920;-85
2022/03/28 07:09:01;;;;;;;;;;;;;;;;;;6178736;23;19916;-85
2022/03/28 07:11:28;;;;;;;;;;;;;;;;;;6179245;23;19972;-85
2022/03/28 07:13:55;;;;;;;;;;;;;;;;;;6179657;23;19921;-85
2022/03/28 07:16:23;;;;;;;;;;;;;;;;;;6179448;23;19920;-85
2022/03/28 07:18:50;;;;;;;;;;;;;;;;;;6180916;23;19948;-84
2022/03/28 07:21:17;;;;;;;;;;;;;;;;;;6178994;23;20017;-85
2022/03/28 07:23:45;;;;;;;;;;;;;;;;;;6180890;23;20366;-85
2022/03/28 07:26:13;;;;;;;;;;;;;;;;;;6180203;23;19923;-85
2022/03/28 07:28:40;;;;;;;;;;;;;;;;;;6180150;23;19998;-84
2022/03/28 07:31:08;;;;;;;;;;;;;;;;;;6178414;23;20333;-84
2022/03/28 07:33:36;;;;;;;;;;;;;;;;;;6179008;23;20327;-85
2022/03/28 07:36:04;;;;;;;;;;;;;;;;;;6178421;23;20306;-85
2022/03/28 07:38:31;;;;;;;;;;;;;;;;;;6177879;23;19921;-86
2022/03/28 07:40:58;;;;;;;;;;;;;;;;;;6174600;23;19944;-85
2022/03/28 07:43:25;;;;;;;;;;;;;;;;;;6172353;23;19995;-85
2022/03/28 07:45:54;;;;;;;;;;;;;;;;;;6175911;23;20326;-85
2022/03/28 07:48:21;;;;;;;;;;;;;;;;;;6176537;23;20677;-85
2022/03/28 07:50:49;;;;;;;;;;;;;;;;;;6176500;23;19924;-85
2022/03/28 07:53:16;;;;;;;;;;;;;;;;;;6177301;23;19923;-85
2022/03/28 07:55:43;;;;;;;;;;;;;;;;;;6178703;23;19924;-85
2022/03/28 07:58:10;;;;;;;;;;;;;;;;;;6178806;23;20055;-84
2022/03/28 08:00:37;;;;;;;;;;;;;;;;;;6177453;23;19927;-86
2022/03/28 08:03:05;;;;;;;;;;;;;;;;;;6178770;23;19924;-85
2022/03/28 08:05:32;;;;;;;;;;;;;;;;;;6177431;23;19924;-85
2022/03/28 08:07:59;;;;;;;;;;;;;;;;;;6179940;23;19920;-85
2022/03/28 08:10:26;;;;;;;;;;;;;;;;;;6172568;23;19979;-85
2022/03/28 08:12:53;;;;;;;;;;;;;;;;;;6178380;23;20349;-85
2022/03/28 08:15:22;;;;;;;;;;;;;;;;;;6177662;23;19942;-85
2022/03/28 08:17:49;;;;;;;;;;;;;;;;;;6177782;23;19924;-85
2022/03/28 08:20:17;;;;;;;;;;;;;;;;;;6173147;23;19920;-85
2022/03/28 08:22:49;;;;;;;;;;;;;;;;;;6173971;23;19962;-84
2022/03/28 08:25:17;;;;;;;;;;;;;;;;;;6180112;23;19920;-85
2022/03/28 08:27:45;;;;;;;;;;;;;;;;;;6178178;23;19950;-85
2022/03/28 08:30:12;;;;;;;;;;;;;;;;;;6177747;23;19995;-85
2022/03/28 08:32:40;;;;;;;;;;;;;;;;;;6177984;23;19917;-85
2022/03/28 08:35:07;;;;;;;;;;;;;;;;;;6177322;23;19963;-85
2022/03/28 08:37:34;;;;;;;;;;;;;;;;;;6177827;23;19932;-85
2022/03/28 08:40:01;;;;;;;;;;;;;;;;;;6178768;23;19916;-84
2022/03/28 08:42:28;;;;;;;;;;;;;;;;;;6178494;23;20360;-85
2022/03/28 08:44:55;;;;;;;;;;;;;;;;;;6178687;23;19924;-85
2022/03/28 08:47:23;;;;;;;;;;;;;;;;;;6178023;23;19992;-85
2022/03/28 08:49:49;;;;;;;;;;;;;;;;;;6176699;23;19991;-85
2022/03/28 08:52:16;;;;;;;;;;;;;;;;;;6176553;23;19960;-85
2022/03/28 08:54:42;;;;;;;;;;;;;;;;;;6178589;23;19931;-85
2022/03/28 08:57:08;;;;;;;;;;;;;;;;;;6177778;23;19916;-85
2022/03/28 08:59:34;;;;;;;;;;;;;;;;;;6178329;23;19924;-85
2022/03/28 09:01:59;;;;;;;;;;;;;;;;;;6176560;23;19920;-85
2022/03/28 09:04:25;;;;;;;;;;;;;;;;;;6178036;23;19951;-85
2022/03/28 09:06:53;;;;;;;;;;;;;;;;;;6177287;23;20377;-85
2022/03/28 09:09:20;;;;;;;;;;;;;;;;;;6177633;23;19916;-85
2022/03/28 09:11:46;;;;;;;;;;;;;;;;;;6176556;23;19928;-84
2022/03/28 09:14:12;;;;;;;;;;;;;;;;;;6177363;23;19920;-84
2022/03/28 09:16:38;;;;;;;;;;;;;;;;;;6178297;23;19927;-85
2022/03/28 09:19:04;;;;;;;;;;;;;;;;;;6176600;23;19974;-85
2022/03/28 09:21:30;;;;;;;;;;;;;;;;;;6177654;23;20369;-85
2022/03/28 09:23:56;;;;;;;;;;;;;;;;;;6176729;23;19924;-85
2022/03/28 09:26:22;;;;;;;;;;;;;;;;;;6177062;23;19920;-84
2022/03/28 09:28:48;;;;;;;;;;;;;;;;;;6176905;23;19927;-84
2022/03/28 09:31:14;;;;;;;;;;;;;;;;;;6177150;23;20261;-85
2022/03/28 09:33:40;;;;;;;;;;;;;;;;;;6176898;23;19924;-85
2022/03/28 09:36:06;;;;;;;;;;;;;;;;;;6176546;23;19916;-85
2022/03/28 09:38:32;;;;;;;;;;;;;;;;;;6177886;23;20000;-85
2022/03/28 09:40:58;;;;;;;;;;;;;;;;;;6177541;23;19927;-84
2022/03/28 09:43:24;;;;;;;;;;;;;;;;;;6177228;23;19949;-85
2022/03/28 09:45:50;;;;;;;;;;;;;;;;;;6177317;23;19948;-85
2022/03/28 09:48:16;;;;;;;;;;;;;;;;;;6176867;23;19986;-85
2022/03/28 09:50:42;;;;;;;;;;;;;;;;;;6176869;23;19935;-85
2022/03/28 09:53:08;;;;;;;;;;;;;;;;;;6177282;23;19948;-85
2022/03/28 09:55:34;;;;;;;;;;;;;;;;;;6177561;23;19920;-86
2022/03/28 09:58:00;;;;;;;;;;;;;;;;;;6177758;23;19923;-86
2022/03/28 10:00:26;;;;;;;;;;;;;;;;;;6177129;23;19987;-85
2022/03/28 10:02:52;;;;;;;;;;;;;;;;;;6176715;23;19971;-85
2022/03/28 10:05:18;;;;;;;;;;;;;;;;;;6177078;23;19920;-85
2022/03/28 10:07:44;;;;;;;;;;;;;;;;;;6177362;23;19920;-85
2022/03/28 10:10:10;;;;;;;;;;;;;;;;;;6176588;23;20290;-85
2022/03/28 10:12:36;;;;;;;;;;;;;;;;;;6177447;23;20277;-85
2022/03/28 10:15:02;;;;;;;;;;;;;;;;;;6176598;23;19935;-85
2022/03/28 10:17:28;;;;;;;;;;;;;;;;;;6177389;23;19979;-85
2022/03/28 10:19:54;;;;;;;;;;;;;;;;;;6176580;23;19928;-85
2022/03/28 10:22:20;;;;;;;;;;;;;;;;;;6178423;23;19920;-86
2022/03/28 10:24:45;;;;;;;;;;;;;;;;;;6181278;23;19926;-85
2022/03/28 10:27:13;;;;;;;;;;;;;;;;;;6178424;23;19924;-85
2022/03/28 10:29:40;;;;;;;;;;;;;;;;;;6179712;23;20401;-85
2022/03/28 10:32:07;;;;;;;;;;;;;;;;;;6178515;23;19982;-85
2022/03/28 10:34:33;;;;;;;;;;;;;;;;;;6178805;23;19928;-85
2022/03/28 10:36:59;;;;;;;;;;;;;;;;;;6178914;23;19960;-84
2022/03/28 10:39:25;;;;;;;;;;;;;;;;;;6177919;23;19920;-84
2022/03/28 10:41:51;;;;;;;;;;;;;;;;;;6179301;23;20289;-84
2022/03/28 10:44:17;;;;;;;;;;;;;;;;;;6177556;23;20252;-84
2022/03/28 10:46:43;;;;;;;;;;;;;;;;;;6179634;23;19916;-84
2022/03/28 10:49:09;;;;;;;;;;;;;;;;;;6179537;23;19916;-84
2022/03/28 10:51:35;;;;;;;;;;;;;;;;;;6178269;23;19938;-84
2022/03/28 10:54:01;;;;;;;;;;;;;;;;;;6179087;23;19924;-84
2022/03/28 10:56:27;;;;;;;;;;;;;;;;;;6178467;23;20244;-85
2022/03/28 10:58:53;;;;;;;;;;;;;;;;;;6178970;23;19931;-84
2022/03/28 11:01:19;;;;;;;;;;;;;;;;;;6178184;23;19967;-84
2022/03/28 11:03:45;;;;;;;;;;;;;;;;;;6178404;23;20277;-84
2022/03/28 11:06:11;;;;;;;;;;;;;;;;;;6172414;23;19920;-84
2022/03/28 11:08:38;;;;;;;;;;;;;;;;;;6179430;23;19926;-84
2022/03/28 11:11:04;;;;;;;;;;;;;;;;;;6179418;23;20102;-85
2022/03/28 11:13:29;;;;;;;;;;;;;;;;;;6180139;23;19955;-85
2022/03/28 11:15:55;;;;;;;;;;;;;;;;;;6179531;23;19920;-84
2022/03/28 11:18:21;;;;;;;;;;;;;;;;;;6177273;23;19920;-85
2022/03/28 11:20:48;;;;;;;;;;;;;;;;;;6177658;23;19960;-85
2022/03/28 11:23:15;;;;;;;;;;;;;;;;;;6177032;23;19974;-85
2022/03/28 11:25:44;;;;;;;;;;;;;;;;;;6176614;23;19935;-85
2022/03/28 11:28:10;;;;;;;;;;;;;;;;;;6178781;23;19916;-85
2022/03/28 11:30:36;;;;;;;;;;;;;;;;;;6179763;23;20003;-85
2022/03/28 11:33:02;;;;;;;;;;;;;;;;;;6178531;23;19971;-85
2022/03/28 11:35:28;;;;;;;;;;;;;;;;;;6177812;23;19924;-86
2022/03/28 11:37:54;;;;;;;;;;;;;;;;;;6178446;23;19940;-85
2022/03/28 11:40:20;;;;;;;;;;;;;;;;;;6176771;23;19920;-85
2022/03/28 11:42:49;;;;;;;;;;;;;;;;;;6176397;23;19971;-84
2022/03/28 11:45:15;;;;;;;;;;;;;;;;;;6177093;23;19916;-85
2022/03/28 11:47:41;;;;;;;;;;;;;;;;;;6178962;23;19971;-85
2022/03/28 11:50:10;;;;;;;;;;;;;;;;;;6177304;23;20431;-85
2022/03/28 11:52:36;;;;;;;;;;;;;;;;;;6179188;23;19917;-84
2022/03/28 11:55:02;;;;;;;;;;;;;;;;;;6177668;23;19979;-84
2022/03/28 12:00:13;;;;;;;;;;;;;;;;;;6179744;23;20260;-84
2022/03/28 12:02:39;;;;;;;;;;;;;;;;;;6180403;23;19920;-84
2022/03/28 12:05:05;;;;;;;;;;;;;;;;;;6180907;23;20353;-84
2022/03/28 12:07:31;;;;;;;;;;;;;;;;;;6180603;23;20338;-84
2022/03/28 12:09:57;;;;;;;;;;;;;;;;;;6178924;23;19924;-85
2022/03/28 12:12:25;;;;;;;;;;;;;;;;;;6205250;23;19929;-85
2022/03/28 12:14:52;;;;;;;;;;;;;;;;;;6179058;23;19970;-85
2022/03/28 12:17:18;;;;;;;;;;;;;;;;;;6179599;23;19927;-85
2022/03/28 12:19:45;;;;;;;;;;;;;;;;;;6179350;23;19924;-85
2022/03/28 12:22:12;;;;;;;;;;;;;;;;;;6180447;23;19920;-85
2022/03/28 12:24:39;;;;;;;;;;;;;;;;;;6179698;23;20294;-85
2022/03/28 12:27:07;;;;;;;;;;;;;;;;;;6179245;23;19917;-80
2022/03/28 12:29:33;;;;;;;;;;;;;;;;;;6178964;23;19952;-81
2022/03/28 12:31:59;;;;;;;;;;;;;;;;;;6177504;23;20482;-81
2022/03/28 12:34:25;;;;;;;;;;;;;;;;;;6181956;23;20247;-81
2022/03/28 12:36:52;;;;;;;;;;;;;;;;;;6181709;23;20265;-80
2022/03/28 12:39:20;;;;;;;;;;;;;;;;;;6180792;23;20644;-80
2022/03/28 12:41:46;;;;;;;;;;;;;;;;;;6181353;23;19916;-80
2022/03/28 12:44:12;;;;;;;;;;;;;;;;;;6179260;23;19921;-80
2022/03/28 12:46:39;;;;;;;;;;;;;;;;;;6179938;23;20022;-80
2022/03/28 12:49:07;;;;;;;;;;;;;;;;;;6204834;23;19927;-81
2022/03/28 12:51:38;;;;;;;;;;;;;;;;;;6179702;23;19932;-80
2022/03/28 12:54:04;;;;;;;;;;;;;;;;;;6179828;23;19995;-80
2022/03/28 12:56:31;;;;;;;;;;;;;;;;;;6205042;23;20372;-80
2022/03/28 12:58:58;;;;;;;;;;;;;;;;;;6180146;23;20012;-80
2022/03/28 13:01:25;;;;;;;;;;;;;;;;;;6179657;23;19924;-81
2022/03/28 13:03:51;;;;;;;;;;;;;;;;;;6182176;23;19920;-80
2022/03/28 13:06:17;;;;;;;;;;;;;;;;;;6179673;23;19916;-80
2022/03/28 13:08:44;;;;;;;;;;;;;;;;;;6180362;23;19921;-81
2022/03/28 13:11:11;;;;;;;;;;;;;;;;;;6177801;23;20249;-81
2022/03/28 13:13:40;;;;;;;;;;;;;;;;;;6178072;23;20348;-80
2022/03/28 13:16:06;;;;;;;;;;;;;;;;;;6179087;23;19916;-81
2022/03/28 13:18:35;;;;;;;;;;;;;;;;;;6179478;23;20326;-80
2022/03/28 13:21:06;;;;;;;;;;;;;;;;;;6178818;23;19987;-80
2022/03/28 13:23:34;;;;;;;;;;;;;;;;;;6179501;23;19921;-80
2022/03/28 13:26:01;;;;;;;;;;;;;;;;;;6179615;23;20044;-81
2022/03/28 13:28:28;;;;;;;;;;;;;;;;;;6178186;23;19977;-81
2022/03/28 13:30:56;;;;;;;;;;;;;;;;;;6177425;23;20337;-81
2022/03/28 13:33:22;;;;;;;;;;;;;;;;;;6178161;23;19920;-81
2022/03/28 13:35:48;;;;;;;;;;;;;;;;;;6179103;23;19920;-81
2022/03/28 13:38:15;;;;;;;;;;;;;;;;;;6178303;23;20293;-80
2022/03/28 13:40:43;;;;;;;;;;;;;;;;;;6178969;23;20458;-81
2022/03/28 13:43:10;;;;;;;;;;;;;;;;;;6179287;23;19920;-80
2022/03/28 13:45:36;;;;;;;;;;;;;;;;;;6177840;23;19970;-80
2022/03/28 13:48:03;;;;;;;;;;;;;;;;;;6179446;23;20003;-81
2022/03/28 13:50:30;;;;;;;;;;;;;;;;;;6177194;23;19936;-81
2022/03/28 13:52:58;;;;;;;;;;;;;;;;;;6179140;23;19917;-81
2022/03/28 13:55:24;;;;;;;;;;;;;;;;;;6179080;23;19971;-81
2022/03/28 13:57:50;;;;;;;;;;;;;;;;;;6179120;23;19956;-80
2022/03/28 14:00:16;;;;;;;;;;;;;;;;;;6177931;23;20389;-80
2022/03/28 14:02:42;;;;;;;;;;;;;;;;;;6180789;23;19920;-81
2022/03/28 14:05:08;;;;;;;;;;;;;;;;;;6181454;23;19991;-80
2022/03/28 14:07:35;;;;;;;;;;;;;;;;;;6179986;23;19927;-81
2022/03/28 14:10:02;;;;;;;;;;;;;;;;;;6179767;23;19920;-80
2022/03/28 14:12:30;;;;;;;;;;;;;;;;;;6184409;23;19923;-83
2022/03/28 14:14:57;;;;;;;;;;;;;;;;;;6184059;23;20346;-83
2022/03/28 14:17:23;;;;;;;;;;;;;;;;;;6185255;23;20300;-83
2022/03/28 14:19:50;;;;;;;;;;;;;;;;;;6184981;23;19967;-83
2022/03/28 14:22:15;;;;;;;;;;;;;;;;;;6183667;23;19951;-83
2022/03/28 14:24:41;;;;;;;;;;;;;;;;;;6184887;23;19924;-83
2022/03/28 14:27:07;;;;;;;;;;;;;;;;;;6184787;23;20321;-83
2022/03/28 14:29:33;;;;;;;;;;;;;;;;;;6184184;23;20300;-83
2022/03/28 14:31:59;;;;;;;;;;;;;;;;;;6182862;23;20238;-83
2022/03/28 14:34:25;;;;;;;;;;;;;;;;;;6184651;23;19990;-83
2022/03/28 14:36:51;;;;;;;;;;;;;;;;;;6184796;23;19916;-83
2022/03/28 14:39:19;;;;;;;;;;;;;;;;;;6184522;23;19920;-83
2022/03/28 14:41:45;;;;;;;;;;;;;;;;;;6182445;23;20351;-83
2022/03/28 14:44:11;;;;;;;;;;;;;;;;;;6181035;23;20327;-83
2022/03/28 14:49:21;;;;;;;;;;;;;;;;;;6178793;23;19987;-83
2022/03/28 14:51:47;;;;;;;;;;;;;;;;;;6174774;23;20006;-83
2022/03/28 14:54:13;;;;;;;;;;;;;;;;;;6180615;23;19923;-83
2022/03/28 14:56:40;;;;;;;;;;;;;;;;;;6184696;23;19916;-83
2022/03/28 14:59:06;;;;;;;;;;;;;;;;;;6185570;23;19924;-83
2022/03/28 15:01:32;;;;;;;;;;;;;;;;;;6182639;23;19920;-83
2022/03/28 15:03:58;;;;;;;;;;;;;;;;;;6182772;23;19920;-83
2022/03/28 15:06:24;;;;;;;;;;;;;;;;;;6180960;23;19920;-83
2022/03/28 15:08:50;;;;;;;;;;;;;;;;;;6181612;23;19923;-83
2022/03/28 15:11:16;;;;;;;;;;;;;;;;;;6180378;23;20261;-83
2022/03/28 15:13:42;;;;;;;;;;;;;;;;;;6181228;23;19924;-83
2022/03/28 15:16:08;;;;;;;;;;;;;;;;;;6181474;23;20295;-83
2022/03/28 15:18:34;;;;;;;;;;;;;;;;;;6182164;23;19920;-83
2022/03/28 15:21:00;;;;;;;;;;;;;;;;;;6181241;23;19975;-83
2022/03/28 15:23:28;;;;;;;;;;;;;;;;;;6179761;23;20344;-83
2022/03/28 15:25:53;;;;;;;;;;;;;;;;;;6179161;23;19939;-83
2022/03/28 15:28:21;;;;;;;;;;;;;;;;;;6180217;23;20251;-83
2022/03/28 15:30:47;;;;;;;;;;;;;;;;;;6179397;23;20318;-83
2022/03/28 15:33:13;;;;;;;;;;;;;;;;;;6178437;23;19924;-83
2022/03/28 15:35:39;;;;;;;;;;;;;;;;;;6180614;23;19976;-82
2022/03/28 15:38:05;;;;;;;;;;;;;;;;;;6182698;23;19919;-83
2022/03/28 15:40:31;;;;;;;;;;;;;;;;;;6180391;23;19916;-83
2022/03/28 15:42:58;;;;;;;;;;;;;;;;;;6180241;23;19922;-82
2022/03/28 15:45:24;;;;;;;;;;;;;;;;;;6177148;23;19924;-83
2022/03/28 15:47:51;;;;;;;;;;;;;;;;;;6176230;23;19920;-83
2022/03/28 15:50:17;;;;;;;;;;;;;;;;;;6179210;23;19967;-83
2022/03/28 15:52:43;;;;;;;;;;;;;;;;;;6178023;23;20243;-82
2022/03/28 15:55:08;;;;;;;;;;;;;;;;;;6177396;23;20376;-83
2022/03/28 15:57:34;;;;;;;;;;;;;;;;;;6180804;23;20438;-83
2022/03/28 16:00:00;;;;;;;;;;;;;;;;;;6178907;23;20179;-83
2022/03/28 16:02:26;;;;;;;;;;;;;;;;;;6179347;23;19916;-82
2022/03/28 16:04:52;;;;;;;;;;;;;;;;;;6177875;23;19991;-83
2022/03/28 16:07:18;;;;;;;;;;;;;;;;;;6179284;23;20257;-83
2022/03/28 16:09:44;;;;;;;;;;;;;;;;;;6179962;23;19970;-83
2022/03/28 16:12:10;;;;;;;;;;;;;;;;;;6172564;23;19931;-82
2022/03/28 16:14:36;;;;;;;;;;;;;;;;;;6170671;23;19954;-83
2022/03/28 16:17:04;;;;;;;;;;;;;;;;;;6173416;23;19927;-83
2022/03/28 16:19:30;;;;;;;;;;;;;;;;;;6174970;23;20330;-84
2022/03/28 16:21:56;;;;;;;;;;;;;;;;;;6171343;23;19971;-83
2022/03/28 16:24:23;;;;;;;;;;;;;;;;;;6171203;23;19978;-83
2022/03/28 16:26:49;;;;;;;;;;;;;;;;;;6170795;23;19927;-83
2022/03/28 16:29:15;;;;;;;;;;;;;;;;;;6174321;23;19920;-83
2022/03/28 16:31:42;;;;;;;;;;;;;;;;;;6174270;23;19931;-83
2022/03/28 16:34:08;;;;;;;;;;;;;;;;;;6175804;23;19936;-83
2022/03/28 16:36:34;;;;;;;;;;;;;;;;;;6174620;23;19920;-82
2022/03/28 16:39:00;;;;;;;;;;;;;;;;;;6174235;23;20026;-83
2022/03/28 16:41:27;;;;;;;;;;;;;;;;;;6173031;23;19920;-83
2022/03/28 16:43:54;;;;;;;;;;;;;;;;;;6173110;23;19924;-83
2022/03/28 16:46:20;;;;;;;;;;;;;;;;;;6172540;23;20109;-83
2022/03/28 16:48:46;;;;;;;;;;;;;;;;;;6175443;23;19927;-83
2022/03/28 16:51:12;;;;;;;;;;;;;;;;;;6174634;23;19931;-83